Terminal Aerodrome Forecast
Issued by NWS Glasgow, MT

Home | Current Version | Previous Version | Text Only | Print | Product List | Glossary On
Versions: 1 2 3 4 5 6 7 8 9 10 11 12 13 14 15 16
119
FTUS45 KGGW 202320
TAFGGW
TAF
KGGW 202320Z 2100/2124 12012KT P6SM SCT060
     FM210200 12009KT P6SM VCSH BKN030 WS020/23025KT
     FM210600 20006KT 4SM BR BKN020 WS020/27035KT
     FM211400 VRB06KT P6SM SCT020
     FM212100 28007KT P6SM SCT030 BKN035=

USA.gov is the U.S. government's official web portal to all federal, state and local government web resources and services.